Time;durP1;ratioP1;P1;durP2;ratioP2;P2;SDS_P1;SDS_P2;PMS_P1;PMS_P2;Temp;Humidity;BMP_temperature;BMP_pressure;BME280_temperature;BME280_humidity;BME280_pressure;Samples;Min_cycle;Max_cycle;Signal;HPM_P1;HPM_P2
2022/09/13 00:01:53;;;;;;;2.90;0.80;;;;;;;16.20;100.00;95944.31;5098475;28;20208;-74
2022/09/13 00:04:20;;;;;;;1.40;0.83;;;;;;;16.22;100.00;95934.78;5108542;28;20204;-74
2022/09/13 00:06:47;;;;;;;2.00;0.70;;;;;;;16.24;100.00;95939.97;5118543;28;20216;-74
2022/09/13 00:09:16;;;;;;;1.20;0.80;;;;;;;16.09;100.00;95938.06;5092050;28;20188;-74
2022/09/13 00:11:43;;;;;;;4.10;0.90;;;;;;;16.02;100.00;95943.00;5115148;28;20246;-74
2022/09/13 00:14:10;;;;;;;0.70;0.70;;;;;;;15.97;100.00;95929.38;5112691;28;20208;-74
2022/09/13 00:16:37;;;;;;;2.50;0.90;;;;;;;15.99;100.00;95931.84;5102627;28;20224;-74
2022/09/13 00:19:04;;;;;;;1.17;0.80;;;;;;;16.01;100.00;95922.28;5099613;28;20202;-74
2022/09/13 00:21:31;;;;;;;1.27;0.80;;;;;;;15.89;100.00;95928.03;5111340;27;20202;-74
2022/09/13 00:23:58;;;;;;;0.87;0.87;;;;;;;15.79;100.00;95925.31;5091211;28;20230;-74
2022/09/13 00:26:28;;;;;;;1.87;0.83;;;;;;;15.79;100.00;95925.31;5103376;28;20233;-74
2022/09/13 00:28:58;;;;;;;2.13;0.90;;;;;;;15.80;100.00;95912.53;5099605;28;20216;-74
2022/09/13 00:31:26;;;;;;;1.40;1.00;;;;;;;15.80;100.00;95913.34;5099335;27;20195;-74
2022/09/13 00:33:54;;;;;;;1.13;0.90;;;;;;;15.72;100.00;95915.81;5119454;27;20217;-74
2022/09/13 00:36:20;;;;;;;1.30;0.80;;;;;;;15.62;100.00;95913.91;5100267;27;20204;-74
2022/09/13 00:38:47;;;;;;;2.73;0.80;;;;;;;15.59;100.00;95917.16;5097923;28;20263;-74
2022/09/13 00:41:16;;;;;;;1.10;1.00;;;;;;;15.49;100.00;95906.22;5100334;28;20201;-74
2022/09/13 00:43:48;;;;;;;4.53;1.13;;;;;;;15.47;100.00;95908.44;5102447;27;20210;-74
2022/09/13 00:46:22;;;;;;;3.07;1.00;;;;;;;15.44;100.00;95911.69;5126625;27;20202;-74
2022/09/13 00:48:53;;;;;;;1.10;1.00;;;;;;;15.43;100.00;95915.50;5097361;27;20203;-74
2022/09/13 00:51:20;;;;;;;1.00;0.90;;;;;;;15.49;100.00;95922.56;5126666;27;20191;-74
2022/09/13 00:53:51;;;;;;;0.60;0.60;;;;;;;15.46;100.00;95928.56;5106792;27;20263;-74
2022/09/13 00:56:24;;;;;;;1.73;0.80;;;;;;;15.47;100.00;95924.75;5098168;27;20313;-74
2022/09/13 00:58:58;;;;;;;1.73;0.80;;;;;;;15.38;100.00;95927.19;5099214;27;20200;-74
2022/09/13 01:01:32;;;;;;;2.70;0.80;;;;;;;15.31;100.00;95926.63;5095710;27;20212;-74
2022/09/13 01:04:01;;;;;;;1.27;0.90;;;;;;;15.24;100.00;95930.69;5115298;27;20282;-74
2022/09/13 01:06:32;;;;;;;2.40;1.00;;;;;;;15.24;100.00;95931.50;5100820;27;20211;-74
2022/09/13 01:09:03;;;;;;;1.53;0.80;;;;;;;15.21;100.00;95928.53;5093980;28;20223;-74
2022/09/13 01:11:39;;;;;;;0.93;0.80;;;;;;;15.25;100.00;95918.72;5105645;27;20227;-74
2022/09/13 01:14:08;;;;;;;1.47;0.87;;;;;;;15.22;100.00;95919.28;5117661;27;20211;-74
2022/09/13 01:16:36;;;;;;;0.77;0.70;;;;;;;15.15;100.00;95912.19;5100007;28;20215;-74
2022/09/13 01:19:03;;;;;;;1.30;0.90;;;;;;;15.24;100.00;95925.25;5100564;27;20211;-73
2022/09/13 01:22:13;;;;;;;0.80;0.80;;;;;;;15.23;100.00;95929.06;5105177;27;20208;-74
2022/09/13 01:25:28;;;;;;;3.17;1.30;;;;;;;15.22;100.00;95932.88;5096397;27;20234;-73
2022/09/13 01:28:24;;;;;;;1.60;0.87;;;;;;;15.16;100.00;95934.75;5071020;28;20232;-73
2022/09/13 01:30:59;;;;;;;3.73;0.90;;;;;;;15.19;100.00;95927.97;5112210;27;20235;-74
2022/09/13 01:33:43;;;;;;;0.80;0.80;;;;;;;15.15;100.00;95933.94;5118888;27;20204;-74
2022/09/13 01:36:34;;;;;;;1.57;0.97;;;;;;;15.15;100.00;95927.69;5100938;27;20207;-74
2022/09/13 01:39:05;;;;;;;0.97;0.90;;;;;;;15.18;100.00;95926.34;5101429;28;20215;-73
2022/09/13 01:41:53;;;;;;;2.87;0.70;;;;;;;15.18;100.00;95935.31;5105540;28;20262;-74
2022/09/13 01:44:34;;;;;;;1.90;0.80;;;;;;;15.19;100.00;95938.84;5112648;27;20196;-74
2022/09/13 01:47:11;;;;;;;2.20;0.90;;;;;;;15.13;100.00;95946.19;5122986;27;20275;-73
2022/09/13 01:49:47;;;;;;;2.77;0.90;;;;;;;15.02;100.00;95948.06;5105076;28;20212;-74
2022/09/13 01:52:23;;;;;;;2.77;1.00;;;;;;;14.95;100.00;95942.06;5107460;27;20294;-74
2022/09/13 01:54:58;;;;;;;1.50;0.90;;;;;;;14.93;100.00;95946.13;5110954;27;20208;-73
2022/09/13 01:57:32;;;;;;;2.00;1.10;;;;;;;14.87;100.00;95945.31;5101859;27;20227;-74
2022/09/13 02:00:05;;;;;;;0.83;0.80;;;;;;;14.81;100.00;95949.06;5112410;27;20213;-74
2022/09/13 02:02:44;;;;;;;1.10;0.80;;;;;;;14.89;100.00;95945.00;5118276;27;20244;-74
2022/09/13 02:05:16;;;;;;;1.10;0.80;;;;;;;14.86;100.00;95946.38;5095732;27;20228;-74
2022/09/13 02:07:48;;;;;;;0.77;0.77;;;;;;;14.83;100.00;95946.09;5105609;27;20239;-74
2022/09/13 02:10:21;;;;;;;1.70;1.43;;;;;;;14.84;100.00;95937.66;5103792;27;20322;-74
2022/09/13 02:12:51;;;;;;;2.00;0.87;;;;;;;14.79;100.00;95928.69;5103986;28;20244;-74
2022/09/13 02:15:22;;;;;;;2.67;0.90;;;;;;;14.76;100.00;95936.28;5102207;28;20289;-73
2022/09/13 02:18:01;;;;;;;4.20;1.10;;;;;;;14.70;100.00;95947.41;5106282;28;20220;-74
2022/09/13 02:20:31;;;;;;;3.90;1.33;;;;;;;14.64;100.00;95952.00;5091516;28;20209;-73
2022/09/13 02:23:03;;;;;;;1.90;0.90;;;;;;;14.56;100.00;95948.97;5114387;27;20216;-74
2022/09/13 02:25:36;;;;;;;1.63;0.80;;;;;;;14.55;100.00;95939.16;5101260;28;20290;-74
2022/09/13 02:28:08;;;;;;;5.17;1.00;;;;;;;14.49;100.00;95945.69;5090649;28;20253;-73
2022/09/13 02:30:40;;;;;;;1.50;0.90;;;;;;;14.46;100.00;95954.38;5088463;28;20355;-74
2022/09/13 02:33:13;;;;;;;1.90;1.03;;;;;;;14.49;100.00;95948.41;5107361;28;20231;-73
2022/09/13 02:35:46;;;;;;;1.10;1.00;;;;;;;14.55;100.00;95960.91;5090045;28;20219;-73
2022/09/13 02:38:20;;;;;;;0.70;0.70;;;;;;;14.58;100.00;95949.53;5093832;28;20201;-74
2022/09/13 02:40:53;;;;;;;1.07;0.97;;;;;;;14.66;100.00;95957.97;5096174;28;20207;-73
2022/09/13 02:43:27;;;;;;;1.47;0.80;;;;;;;14.73;100.00;95963.16;5103525;28;20252;-74
2022/09/13 02:46:10;;;;;;;1.03;0.90;;;;;;;14.67;100.00;95954.19;5090908;28;20208;-74
2022/09/13 02:48:49;;;;;;;1.13;0.93;;;;;;;14.53;100.00;95954.94;5089831;28;20230;-74
2022/09/13 02:51:24;;;;;;;0.93;0.87;;;;;;;14.50;100.00;95948.13;5089655;28;20200;-74
2022/09/13 02:54:00;;;;;;;1.47;0.80;;;;;;;14.41;100.00;95948.91;5093016;28;20208;-73
2022/09/13 02:56:36;;;;;;;1.90;0.83;;;;;;;14.35;100.00;95954.28;5097915;28;20231;-74
2022/09/13 02:59:10;;;;;;;0.73;0.73;;;;;;;14.35;100.00;95948.84;5097414;28;20215;-74
2022/09/13 03:01:39;;;;;;;2.30;0.80;;;;;;;14.37;100.00;95949.38;5093408;28;20204;-74
2022/09/13 03:04:08;;;;;;;1.87;0.70;;;;;;;14.37;100.00;95952.09;5088884;28;20230;-74
2022/09/13 03:06:35;;;;;;;2.70;1.33;;;;;;;14.29;100.00;95947.16;5088344;28;20189;-73
2022/09/13 03:09:04;;;;;;;1.87;0.90;;;;;;;14.31;100.00;95949.63;5104334;28;20226;-74
2022/09/13 03:11:41;;;;;;;1.70;1.00;;;;;;;14.34;100.00;95949.09;5104775;28;20298;-73
2022/09/13 03:14:20;;;;;;;0.83;0.77;;;;;;;14.36;100.00;95949.66;5101624;28;20223;-73
2022/09/13 03:17:13;;;;;;;2.37;0.90;;;;;;;14.28;100.00;95947.44;5098339;28;20209;-73
2022/09/13 03:19:54;;;;;;;1.77;0.90;;;;;;;14.32;100.00;95946.66;5093045;28;20303;-73
2022/09/13 03:22:44;;;;;;;0.63;0.63;;;;;;;14.34;100.00;95939.06;5092232;28;20273;-74
2022/09/13 03:25:26;;;;;;;2.20;0.70;;;;;;;14.38;100.00;95945.63;5089298;28;20287;-73
2022/09/13 03:28:02;;;;;;;3.47;0.60;;;;;;;14.49;100.00;95946.50;5100544;28;20221;-74
2022/09/13 03:30:33;;;;;;;2.30;0.90;;;;;;;14.58;100.00;95954.97;5095655;28;20192;-74
2022/09/13 03:33:08;;;;;;;1.73;1.03;;;;;;;14.63;100.00;95947.63;5106035;28;20200;-74
2022/09/13 03:35:41;;;;;;;1.10;1.00;;;;;;;14.65;100.00;95956.34;5104041;28;20238;-73
2022/09/13 03:38:12;;;;;;;2.10;1.27;;;;;;;14.59;100.00;95951.97;5096769;28;20197;-74
2022/09/13 03:40:45;;;;;;;2.03;0.90;;;;;;;14.52;100.00;95950.59;5093061;28;20222;-73
2022/09/13 03:43:16;;;;;;;2.27;1.10;;;;;;;14.50;100.00;95950.03;5098653;28;20208;-74
2022/09/13 03:45:48;;;;;;;3.63;1.00;;;;;;;14.45;100.00;95950.03;5103577;28;20208;-73
2022/09/13 03:48:16;;;;;;;0.80;0.80;;;;;;;14.37;100.00;95948.59;5091755;28;20313;-73
2022/09/13 03:50:46;;;;;;;2.17;0.80;;;;;;;14.34;100.00;95946.41;5090501;28;20216;-74
2022/09/13 03:53:18;;;;;;;3.30;0.90;;;;;;;14.29;100.00;95941.72;5091061;28;20254;-73
2022/09/13 03:55:45;;;;;;;1.63;0.87;;;;;;;14.28;100.00;95955.59;5092480;28;20295;-74
2022/09/13 03:58:14;;;;;;;0.80;0.80;;;;;;;14.23;100.00;95950.94;5088216;28;20196;-73
2022/09/13 04:00:41;;;;;;;0.73;0.73;;;;;;;14.24;100.00;95954.47;5103170;28;20219;-74
2022/09/13 04:03:09;;;;;;;0.70;0.70;;;;;;;14.26;100.00;95947.72;5093630;28;20199;-73
2022/09/13 04:05:36;;;;;;;3.97;1.00;;;;;;;14.31;100.00;95945.00;5094904;28;20280;-73
2022/09/13 04:08:06;;;;;;;1.83;1.10;;;;;;;14.28;100.00;95945.56;5099625;28;20258;-73
2022/09/13 04:10:34;;;;;;;2.60;0.80;;;;;;;14.29;100.00;95952.59;5110661;27;20209;-74
2022/09/13 04:13:01;;;;;;;1.40;1.00;;;;;;;14.27;100.00;95957.50;5094072;28;20224;-74
2022/09/13 04:15:30;;;;;;;1.87;0.80;;;;;;;14.30;100.00;95951.53;5111541;28;20315;-73
2022/09/13 04:17:57;;;;;;;0.77;0.77;;;;;;;14.30;100.00;95953.41;5094658;28;20197;-73
2022/09/13 04:20:24;;;;;;;0.70;0.70;;;;;;;14.30;100.00;95948.81;5103399;28;20199;-73
2022/09/13 04:22:52;;;;;;;2.70;1.10;;;;;;;14.26;100.00;95953.13;5103868;28;20290;-73
2022/09/13 04:25:21;;;;;;;4.03;0.87;;;;;;;14.33;100.00;95951.00;5106355;28;20200;-73
2022/09/13 04:27:48;;;;;;;1.03;0.80;;;;;;;14.25;100.00;95951.50;5092587;28;20224;-73
2022/09/13 04:30:16;;;;;;;2.57;1.00;;;;;;;14.27;100.00;95954.78;5101712;28;20232;-73
2022/09/13 04:32:44;;;;;;;1.33;0.90;;;;;;;14.30;100.00;95959.66;5097354;28;20212;-73
2022/09/13 04:35:11;;;;;;;2.40;1.10;;;;;;;14.38;100.00;95950.19;5099612;28;20201;-73
2022/09/13 04:37:38;;;;;;;1.47;0.80;;;;;;;14.35;100.00;95956.19;5100808;28;20200;-73
2022/09/13 04:40:07;;;;;;;1.03;0.80;;;;;;;14.34;100.00;95939.06;5106420;28;20300;-73
2022/09/13 04:42:36;;;;;;;2.70;1.20;;;;;;;14.34;100.00;95957.25;5108223;28;20200;-73
2022/09/13 04:45:03;;;;;;;1.47;0.90;;;;;;;14.22;100.00;95951.19;5096744;28;20200;-74
2022/09/13 04:47:30;;;;;;;1.67;1.00;;;;;;;14.19;100.00;95968.84;5098573;28;20201;-73
2022/09/13 04:49:58;;;;;;;1.73;0.80;;;;;;;14.14;100.00;95957.94;5097335;27;20221;-72
2022/09/13 04:52:25;;;;;;;0.70;0.70;;;;;;;14.13;100.00;95964.44;5091989;27;20216;-73
2022/09/13 04:54:52;;;;;;;2.63;0.90;;;;;;;14.18;100.00;95967.22;5089563;28;20200;-73
2022/09/13 04:57:19;;;;;;;1.57;1.23;;;;;;;14.15;100.00;95972.34;5094189;28;20235;-73
2022/09/13 04:59:48;;;;;;;2.10;1.03;;;;;;;14.15;100.00;95973.16;5099566;28;20222;-73
2022/09/13 05:02:14;;;;;;;1.27;0.90;;;;;;;14.19;100.00;95977.00;5097865;28;20201;-73
2022/09/13 05:04:41;;;;;;;1.70;0.87;;;;;;;14.18;100.00;95988.13;5103180;28;20200;-73
2022/09/13 05:07:08;;;;;;;1.00;0.90;;;;;;;14.13;100.00;95983.47;5091820;28;20295;-73
2022/09/13 05:09:35;;;;;;;1.40;0.90;;;;;;;14.10;100.00;95985.91;5091228;28;20283;-73
2022/09/13 05:12:03;;;;;;;2.97;1.10;;;;;;;14.07;100.00;95981.78;5094385;28;20224;-73
2022/09/13 05:14:30;;;;;;;1.63;1.00;;;;;;;14.06;100.00;95976.63;5099347;28;20215;-74
2022/09/13 05:16:59;;;;;;;1.87;1.10;;;;;;;14.06;100.00;95979.34;5093823;28;20247;-73
2022/09/13 05:19:26;;;;;;;3.20;0.80;;;;;;;14.00;100.00;95973.88;5100069;28;20295;-73
2022/09/13 05:21:53;;;;;;;1.20;1.00;;;;;;;13.99;100.00;95974.13;5100253;28;20200;-73
2022/09/13 05:24:19;;;;;;;1.90;0.77;;;;;;;13.91;100.00;95978.16;5107701;28;20212;-74
2022/09/13 05:26:46;;;;;;;4.10;1.70;;;;;;;13.96;100.00;95980.06;5092342;28;20298;-73
2022/09/13 05:29:14;;;;;;;1.10;1.00;;;;;;;13.97;100.00;95987.16;5097313;28;20250;-73
2022/09/13 05:31:42;;;;;;;2.93;0.90;;;;;;;14.01;100.00;95983.66;5093109;28;20216;-73
2022/09/13 05:34:13;;;;;;;3.00;1.10;;;;;;;14.05;100.00;95985.84;5104066;28;20254;-73
2022/09/13 05:36:41;;;;;;;1.10;1.00;;;;;;;14.06;100.00;95991.00;5107110;28;20216;-73
2022/09/13 05:39:14;;;;;;;6.03;2.80;;;;;;;13.98;100.00;95988.78;5105664;28;20215;-72
2022/09/13 05:41:41;;;;;;;6.53;5.60;;;;;;;14.00;100.00;95983.91;5097087;28;20213;-73
2022/09/13 05:44:08;;;;;;;2.33;2.13;;;;;;;14.04;100.00;95987.72;5091607;28;20196;-74
2022/09/13 05:46:35;;;;;;;2.83;1.80;;;;;;;14.09;100.00;95993.22;5092257;28;20268;-74
2022/09/13 05:49:02;;;;;;;3.20;1.90;;;;;;;14.08;100.00;95993.47;5088855;28;20217;-73
2022/09/13 05:51:31;;;;;;;1.70;1.40;;;;;;;14.09;100.00;95995.94;5097005;28;20209;-74
2022/09/13 05:53:58;;;;;;;1.63;1.17;;;;;;;14.10;100.00;95989.44;5098666;28;20205;-74
2022/09/13 05:56:28;;;;;;;1.57;0.90;;;;;;;14.11;100.00;95982.91;5093823;28;20235;-74
2022/09/13 05:58:55;;;;;;;3.97;2.10;;;;;;;14.00;100.00;95968.44;5096721;28;20286;-73
2022/09/13 06:01:25;;;;;;;3.43;3.20;;;;;;;14.01;100.00;95971.97;5097300;27;20208;-73
2022/09/13 06:03:54;;;;;;;4.27;1.60;;;;;;;13.99;100.00;95963.28;5101339;28;20200;-73
2022/09/13 06:06:22;;;;;;;1.17;0.80;;;;;;;13.99;100.00;95966.00;5099300;27;20272;-73
2022/09/13 06:08:53;;;;;;;1.40;1.30;;;;;;;14.03;100.00;95965.19;5094651;27;20213;-73
2022/09/13 06:11:21;;;;;;;1.50;1.10;;;;;;;14.00;100.00;95959.50;5098607;28;20231;-73
2022/09/13 06:13:48;;;;;;;3.37;1.10;;;;;;;14.03;100.00;95965.19;5097155;27;20266;-74
2022/09/13 06:16:16;;;;;;;3.13;1.10;;;;;;;14.09;100.00;95960.63;5093021;27;20196;-73
2022/09/13 06:18:44;;;;;;;1.30;1.20;;;;;;;14.13;100.00;95952.78;5120463;27;20231;-74
2022/09/13 06:21:16;;;;;;;1.60;1.27;;;;;;;14.13;100.00;95952.78;5116954;27;20211;-74
2022/09/13 06:23:43;;;;;;;1.57;1.07;;;;;;;14.09;100.00;95960.63;5118095;27;20231;-74
2022/09/13 06:26:13;;;;;;;6.60;1.23;;;;;;;14.09;100.00;95955.22;5119977;27;20219;-74
2022/09/13 06:28:41;;;;;;;3.47;1.43;;;;;;;14.13;100.00;95958.19;5101503;27;20219;-73
2022/09/13 06:31:10;;;;;;;3.17;1.40;;;;;;;14.13;100.00;95941.91;5092489;27;20212;-74
2022/09/13 06:33:39;;;;;;;1.37;1.27;;;;;;;14.14;100.00;95938.94;5109254;27;20319;-74
2022/09/13 06:36:09;;;;;;;5.43;1.27;;;;;;;14.14;100.00;95933.50;5113479;27;20208;-74
2022/09/13 06:38:38;;;;;;;3.77;1.50;;;;;;;14.12;100.00;95935.66;5104711;27;20210;-74
2022/09/13 06:41:08;;;;;;;3.23;1.30;;;;;;;14.15;100.00;95929.72;5094257;28;20207;-74
2022/09/13 06:43:37;;;;;;;1.30;1.20;;;;;;;14.20;100.00;95927.06;5104592;28;20204;-74
2022/09/13 06:46:06;;;;;;;3.63;1.20;;;;;;;14.21;100.00;95922.41;5092583;27;20255;-74
2022/09/13 06:48:35;;;;;;;1.57;1.30;;;;;;;14.19;100.00;95919.97;5113071;27;20217;-74
2022/09/13 06:51:04;;;;;;;2.73;1.30;;;;;;;14.15;100.00;95924.28;5098194;28;20215;-74
2022/09/13 06:53:34;;;;;;;3.53;1.10;;;;;;;14.11;100.00;95917.75;5098869;27;20231;-73
2022/09/13 06:56:03;;;;;;;1.47;1.10;;;;;;;14.12;100.00;95919.38;5102475;27;20224;-73
2022/09/13 06:58:31;;;;;;;5.37;1.80;;;;;;;14.13;100.00;95917.47;5110964;27;20208;-73
2022/09/13 07:01:12;;;;;;;2.40;1.70;;;;;;;14.18;100.00;95918.34;5122941;27;20203;-73
2022/09/13 07:03:41;;;;;;;1.83;1.20;;;;;;;14.21;100.00;95906.94;5104663;28;20200;-73
2022/09/13 07:06:13;;;;;;;1.80;1.13;;;;;;;14.18;100.00;95910.19;5096827;28;20204;-73
2022/09/13 07:08:41;;;;;;;4.07;1.20;;;;;;;14.23;100.00;95912.94;5118094;27;20234;-73
2022/09/13 07:11:09;;;;;;;1.33;1.17;;;;;;;14.24;100.00;95905.59;5120531;27;20211;-74
2022/09/13 07:13:36;;;;;;;1.40;1.27;;;;;;;14.28;100.00;95899.41;5111494;27;20215;-74
2022/09/13 07:16:05;;;;;;;4.40;1.37;;;;;;;14.32;100.00;95914.06;5097634;27;20199;-74
2022/09/13 07:18:35;;;;;;;1.50;1.20;;;;;;;14.30;100.00;95905.34;5104441;27;20231;-74
2022/09/13 07:21:04;;;;;;;3.17;1.30;;;;;;;14.30;100.00;95902.63;5106594;27;20211;-74
2022/09/13 07:23:32;;;;;;;6.10;1.30;;;;;;;14.27;100.00;95895.03;5102462;27;20302;-73
2022/09/13 07:26:04;;;;;;;2.13;1.30;;;;;;;14.33;100.00;95893.16;5101398;28;20204;-73
2022/09/13 07:28:34;;;;;;;6.23;2.47;;;;;;;14.37;100.00;95889.63;5108966;27;20200;-73
2022/09/13 07:31:06;;;;;;;2.60;1.43;;;;;;;14.44;100.00;95877.75;5096560;27;20208;-73
2022/09/13 07:33:33;;;;;;;3.23;1.40;;;;;;;14.51;100.00;95881.03;5092220;28;20220;-74
2022/09/13 07:36:05;;;;;;;2.00;1.37;;;;;;;14.59;100.00;95880.53;5092328;27;20204;-73
2022/09/13 07:38:33;;;;;;;4.00;1.60;;;;;;;14.62;100.00;95872.66;5097982;27;20212;-74
2022/09/13 07:41:00;;;;;;;5.50;1.30;;;;;;;14.66;100.00;95870.22;5104431;27;20219;-73
2022/09/13 07:43:28;;;;;;;2.07;1.17;;;;;;;14.70;100.00;95871.31;5124334;27;20230;-74
2022/09/13 07:45:59;;;;;;;3.10;1.37;;;;;;;14.77;100.00;95872.69;5109201;27;20231;-74
2022/09/13 07:48:28;;;;;;;1.77;1.10;;;;;;;14.82;100.00;95871.88;5111470;27;20204;-73
2022/09/13 07:51:01;;;;;;;3.23;1.30;;;;;;;14.89;100.00;95875.16;5092528;28;20231;-74
2022/09/13 07:53:28;;;;;;;2.93;1.20;;;;;;;14.96;100.00;95864.88;5114764;27;20208;-74
2022/09/13 07:56:01;;;;;;;1.33;0.90;;;;;;;15.07;100.00;95854.78;5107431;28;20204;-74
2022/09/13 07:58:28;;;;;;;1.77;1.00;;;;;;;15.14;100.00;95849.94;5108286;28;20211;-74
2022/09/13 08:00:55;;;;;;;3.50;1.03;;;;;;;15.28;100.00;95844.75;5111169;27;20191;-74
2022/09/13 08:03:22;;;;;;;2.20;1.10;;;;;;;15.41;100.00;95844.19;5121213;27;20272;-74
2022/09/13 08:05:49;;;;;;;1.17;0.70;;;;;;;15.67;100.00;95847.75;5115142;28;20203;-73
2022/09/13 08:08:18;;;;;;;1.10;0.70;;;;;;;16.16;100.00;95847.94;5091355;28;20208;-74
2022/09/13 08:10:45;;;;;;;0.80;0.80;;;;;;;16.70;100.00;95852.63;5094716;28;20227;-74
2022/09/13 08:13:12;;;;;;;1.73;0.80;;;;;;;17.23;100.00;95851.72;5091956;28;20227;-74
2022/09/13 08:15:40;;;;;;;0.80;0.80;;;;;;;17.56;100.00;95854.75;5118110;27;20204;-74
2022/09/13 08:18:08;;;;;;;3.67;1.10;;;;;;;17.81;100.00;95857.28;5093569;28;20204;-74
2022/09/13 08:20:36;;;;;;;3.13;1.07;;;;;;;18.00;100.00;95841.78;5109300;27;20211;-74
2022/09/13 08:23:04;;;;;;;4.13;1.00;;;;;;;18.08;100.00;95856.75;5103444;28;20306;-74
2022/09/13 08:25:34;;;;;;;1.93;0.90;;;;;;;18.05;100.00;95858.13;5108010;27;20211;-74
2022/09/13 08:28:01;;;;;;;1.77;1.10;;;;;;;18.14;100.00;95859.13;5102468;28;20283;-74
2022/09/13 08:30:32;;;;;;;0.70;0.70;;;;;;;18.30;100.00;95861.66;5117693;28;20223;-74
2022/09/13 08:33:00;;;;;;;2.40;1.03;;;;;;;18.52;100.00;95860.06;5092296;28;20242;-74
2022/09/13 08:35:27;;;;;;;1.80;1.00;;;;;;;18.80;100.00;95863.00;5091840;28;20201;-74
2022/09/13 08:37:54;;;;;;;1.80;1.00;;;;;;;19.11;97.90;95857.94;5093855;28;20257;-74
2022/09/13 08:40:22;;;;;;;3.77;1.10;;;;;;;19.48;95.41;95860.66;5105133;28;20245;-74
2022/09/13 08:42:58;;;;;;;2.95;1.10;;;;;;;19.88;95.56;95844.66;5123492;28;20238;-75
2022/09/13 08:45:25;;;;;;;1.73;1.10;;;;;;;20.20;93.17;95849.28;5112463;28;20191;-74
2022/09/13 08:47:56;;;;;;;2.22;1.30;;;;;;;20.54;85.22;95855.19;5093450;28;20208;-75
2022/09/13 08:50:29;;;;;;;2.90;1.05;;;;;;;20.91;81.44;95848.66;5110056;28;20215;-74
2022/09/13 08:53:07;;;;;;;4.43;1.10;;;;;;;21.24;85.99;95843.03;5097059;27;20235;-75
2022/09/13 08:55:42;;;;;;;1.70;0.95;;;;;;;21.49;85.97;95845.97;5107629;27;20245;-75
2022/09/13 08:58:27;;;;;;;3.05;1.13;;;;;;;21.80;79.92;95854.25;5111631;27;20326;-74
2022/09/13 09:01:03;;;;;;;2.95;1.45;;;;;;;22.08;74.13;95854.97;5098533;27;20200;-74
2022/09/13 09:03:41;;;;;;;2.55;1.38;;;;;;;22.31;71.99;95855.72;5104134;28;20199;-73
2022/09/13 09:06:13;;;;;;;2.95;1.40;;;;;;;22.50;66.99;95861.78;5101294;28;20212;-74
2022/09/13 09:08:45;;;;;;;2.45;1.27;;;;;;;22.70;65.39;95854.09;5097072;28;20208;-74
2022/09/13 09:11:31;;;;;;;2.38;1.00;;;;;;;22.82;61.68;95854.31;5095826;28;20220;-74
2022/09/13 09:14:08;;;;;;;4.55;1.20;;;;;;;22.95;62.16;95847.88;5094036;28;20208;-74
2022/09/13 09:16:40;;;;;;;2.47;0.90;;;;;;;23.09;63.11;95844.97;5118312;27;20207;-74
2022/09/13 09:19:19;;;;;;;2.03;1.00;;;;;;;23.22;61.65;95841.28;5110999;28;20249;-74
2022/09/13 09:21:49;;;;;;;2.50;0.82;;;;;;;23.36;63.04;95837.22;5102876;27;20210;-74
2022/09/13 09:24:20;;;;;;;1.10;0.73;;;;;;;23.51;63.17;95835.13;5114316;27;20211;-74
2022/09/13 09:26:53;;;;;;;3.65;1.00;;;;;;;23.65;63.06;95833.81;5094259;28;20216;-74
2022/09/13 09:29:25;;;;;;;3.30;1.50;;;;;;;23.87;63.90;95829.25;5117977;27;20294;-74
2022/09/13 09:32:08;;;;;;;2.70;1.10;;;;;;;24.06;58.63;95827.75;5102850;28;20204;-74
2022/09/13 09:34:49;;;;;;;4.22;1.08;;;;;;;24.24;58.25;95827.72;5098965;28;20295;-74
2022/09/13 09:37:20;;;;;;;3.83;1.02;;;;;;;24.37;60.91;95824.75;5096221;27;20267;-74
2022/09/13 09:39:49;;;;;;;2.45;1.30;;;;;;;24.54;57.76;95829.38;5105264;27;20203;-74
2022/09/13 09:42:20;;;;;;;1.52;0.90;;;;;;;24.68;60.01;95823.63;5099912;27;20199;-74
2022/09/13 09:44:52;;;;;;;3.47;1.10;;;;;;;24.68;59.16;95818.91;5124644;27;20281;-74
2022/09/13 09:47:22;;;;;;;2.75;1.08;;;;;;;24.76;59.45;95815.28;5103184;28;20232;-74
2022/09/13 09:50:10;;;;;;;3.33;1.20;;;;;;;24.87;59.72;95822.06;5103945;28;20269;-74
2022/09/13 09:52:43;;;;;;;5.38;1.50;;;;;;;25.05;60.84;95814.50;5095905;27;20208;-74
2022/09/13 09:55:26;;;;;;;2.42;1.00;;;;;;;25.13;60.12;95810.06;5097885;27;20207;-74
2022/09/13 09:57:56;;;;;;;1.15;0.90;;;;;;;25.25;57.48;95810.97;5103628;27;20222;-74
2022/09/13 10:00:27;;;;;;;2.63;1.20;;;;;;;25.22;59.22;95810.81;5093064;28;20210;-74
2022/09/13 10:02:58;;;;;;;2.47;1.00;;;;;;;25.32;58.30;95807.66;5097625;28;20288;-74
2022/09/13 10:05:27;;;;;;;3.05;1.30;;;;;;;25.44;56.63;95798.59;5105336;27;20207;-75
2022/09/13 10:07:57;;;;;;;3.60;1.00;;;;;;;25.55;57.37;95797.03;5103049;27;20199;-74
2022/09/13 10:10:30;;;;;;;4.13;1.30;;;;;;;25.59;56.35;95793.31;5101109;27;20234;-74
2022/09/13 10:12:58;;;;;;;1.38;1.10;;;;;;;25.69;59.54;95794.03;5121542;27;20262;-75
2022/09/13 10:15:32;;;;;;;3.00;1.00;;;;;;;25.71;60.20;95786.19;5098487;27;20196;-74
2022/09/13 10:18:14;;;;;;;2.08;0.80;;;;;;;25.76;59.17;95780.44;5111604;27;20224;-75
2022/09/13 10:20:41;;;;;;;4.05;1.20;;;;;;;25.92;60.41;95779.47;5105018;27;20226;-75
2022/09/13 10:23:19;;;;;;;3.00;1.10;;;;;;;26.07;59.94;95772.44;5093946;28;20207;-75
2022/09/13 10:26:01;;;;;;;1.17;1.00;;;;;;;26.24;61.67;95766.72;5094212;27;20202;-75
2022/09/13 10:28:31;;;;;;;1.83;0.93;;;;;;;26.24;62.23;95780.56;5124756;27;20223;-75
2022/09/13 10:31:05;;;;;;;3.88;1.20;;;;;;;26.21;62.94;95778.47;5110044;28;20235;-75
2022/09/13 10:33:35;;;;;;;1.77;0.95;;;;;;;26.06;64.02;95779.13;5101569;28;20227;-75
2022/09/13 10:36:06;;;;;;;4.18;1.00;;;;;;;26.04;63.40;95775.09;5094319;28;20200;-75
2022/09/13 10:38:36;;;;;;;2.80;1.35;;;;;;;25.88;63.69;95783.22;5096408;28;20215;-74
2022/09/13 10:41:07;;;;;;;1.65;1.10;;;;;;;25.82;65.43;95779.88;5095174;28;20263;-75
2022/09/13 10:43:34;;;;;;;2.05;1.27;;;;;;;25.79;65.05;95776.97;5090455;28;20204;-75
2022/09/13 10:46:06;;;;;;;2.97;0.90;;;;;;;25.80;63.93;95773.88;5094897;28;20196;-76
2022/09/13 10:48:46;;;;;;;1.10;0.90;;;;;;;25.75;62.69;95787.94;5105147;28;20200;-75
2022/09/13 10:51:28;;;;;;;0.98;0.82;;;;;;;25.74;62.49;95779.97;5100004;28;20235;-75
2022/09/13 10:54:10;;;;;;;5.07;1.50;;;;;;;25.81;61.92;95783.00;5118042;27;20615;-75
2022/09/13 10:56:37;;;;;;;1.13;0.70;;;;;;;25.92;61.03;95773.94;5101214;28;20228;-75
2022/09/13 10:59:21;;;;;;;3.20;0.95;;;;;;;26.19;59.04;95778.00;5090021;27;20210;-75
2022/09/13 11:02:31;;;;;;;2.17;0.80;;;;;;;26.26;59.14;95772.75;5102970;27;20234;-75
2022/09/13 11:05:15;;;;;;;0.80;0.80;;;;;;;26.15;58.08;95774.31;5097644;27;20328;-75
2022/09/13 11:08:07;;;;;;;2.30;0.98;;;;;;;26.13;56.10;95768.31;5102228;27;20223;-75
2022/09/13 11:10:41;;;;;;;1.60;0.70;;;;;;;26.19;54.74;95771.69;5112336;27;20219;-75
2022/09/13 11:13:19;;;;;;;1.85;0.80;;;;;;;26.29;54.09;95754.63;5094738;28;20331;-75
2022/09/13 11:15:56;;;;;;;1.50;0.77;;;;;;;26.34;54.41;95740.56;5089054;28;20201;-75
2022/09/13 11:18:51;;;;;;;1.77;0.70;;;;;;;26.45;54.52;95740.94;5093681;28;20196;-75
2022/09/13 11:21:32;;;;;;;1.55;0.80;;;;;;;26.56;54.03;95747.59;5097163;28;20296;-75
2022/09/13 11:24:13;;;;;;;2.97;1.10;;;;;;;26.39;55.52;95745.88;5098536;28;20239;-75
2022/09/13 11:26:52;;;;;;;1.55;1.02;;;;;;;26.53;53.54;95738.03;5097975;28;20221;-75
2022/09/13 11:29:38;;;;;;;1.48;0.77;;;;;;;26.64;53.29;95741.13;5093673;28;20212;-75
2022/09/13 11:32:21;;;;;;;2.25;1.02;;;;;;;26.87;54.52;95739.50;5090695;28;20235;-74
2022/09/13 11:35:24;;;;;;;1.15;0.68;;;;;;;26.82;53.63;95728.66;5095417;28;20211;-75
2022/09/13 11:38:03;;;;;;;1.73;0.85;;;;;;;27.01;56.56;95728.06;5109756;27;20205;-75
2022/09/13 11:40:40;;;;;;;5.53;1.23;;;;;;;27.23;52.77;95735.03;5096441;28;20212;-74
2022/09/13 11:43:27;;;;;;;2.67;0.95;;;;;;;27.36;52.26;95719.97;5101054;28;20291;-75
2022/09/13 11:46:03;;;;;;;1.70;0.90;;;;;;;27.41;52.37;95717.75;5102953;28;20197;-76
2022/09/13 11:49:00;;;;;;;0.95;0.80;;;;;;;27.28;51.67;95718.97;5088964;28;20299;-75
2022/09/13 11:51:39;;;;;;;2.35;1.05;;;;;;;27.47;51.71;95715.56;5100302;27;20227;-75